Aérodrome :
LOGIN :

S'inscrire | Disclaimer

   EN    FR    IT 

 










Légende :    VFR   VFR Marginal   IFR   IFR Intensif   IFR Très Intensif
Visi : 
Plafond : 
>= 8 km
>= 3000ft
5 à 8 km
1000 à 3000 ft
1500m à 5 km
500 à 1000 ft
800 à 1500m
200 à 500 ft
< 800m
< 200 ft
Symboles :   Orages  Brouillard  Fortes neiges  Fortes précipitations  Vent > 20 kt
SIGMETs :   Divers  Orages  Givrage  Turbulence  Onde Orograph.  Cendres Volcan.







- Altitude de l'aérodrome : 587 ft
- Code IATA : XCR
- Voir les cartes d'approche


LFOK - Chalons Vatry

DERNIER METAR :
  • 280300Z AUTO 21017KT 9999 SCT022 BKN029 BKN047 04/02 Q0995 NOSIG

METARs EXPIRÉS :
  • 280230Z AUTO 22019KT 9999 FEW029 SCT180 BKN200 04/02 Q0996 NOSIG
  • 280200Z AUTO 22018KT 9999 BKN029 05/02 Q0996 NOSIG
  • 280130Z AUTO 22018KT 9999 FEW021 05/03 Q0996 NOSIG
  • 280100Z AUTO 23020KT 9999 FEW015 BKN020 BKN140 05/03 Q0996 NOSIG
  • 280030Z AUTO 22020KT 7000 -RA SCT013 BKN020 BKN032 05/03 Q0996 NOSIG

TAF TAF LFOK
Valide du 28 à 00h jusqu'au 01 à 00h UTC


272300Z 2800/2824 19020G30KT 9999 BKN035
BECMG 2800/2803 20015KT
BECMG 2806/2809 BKN015
TEMPO 2809/2812 20020G35KT 3000 SHRA BKN008 BKN013CB
BECMG 2812/2815 28012G30KT BKN020
TEMPO 2815/2824 4000 SHRA BKN015CB
Pas de NOTAMs connus pour ce terrain.
1 SIGMET publié pour la FIR Paris (LFFF) :
 
Turbulence forte
LFFF SIGMET 11 VALID 280000/280400 LFPW
LFFF PARIS FIR/UIR SEV TURB FCST WI N4915 W00015 - N5000 W00015 - N5100 E00145 - N5015 E00200 SFC/FL060 STNR NC=



MET'MAP, la Météo Aéronautique d'un coup d'oeil ! - Copyright ORBIFLY Décembre 2007 - Disclaimer

ORBIFLY MET'MAP TEAM :

Programmation & Développement : Alexandra Zaïnal
Conception & Développement : Baudouin d'Aumeries
Co-Programmation & Développement : Marc-Olivier Méhu
Soutien technique & logistique : Manuel Goepfert

Contact : metmap@orbifly.com




SOURCES & CREDITS :

   NOAA